Karin IV — YT2496 — position and weather

sailwx.info

Track history (hours):
 
Tides and Currents Weather Stations Pressure Air Temp Water Temp Dewpoint Dewpoint Depression Visibility Wind Speed Wind Dir Waves Ship Positions

Karin IV

Last reported at 2018-Jun-23 18:43 UTC. Time now 2018-Jun-23 21:33 UTC.
Position N 45°50' E 018°51'.

Length 105 m; draft 0.3 m.

Type: Tanker. MMSI: 279202496.

Date/timePositionNaut miles runAvg speedWind from/ knotsBaromVisibWave heightAir tempDewpointWater temp
2018-Jun-23 18:43N 45°50' E 018°51'1 4.2
2018-Jun-23 18:30N 45°51' E 018°52'0 0.0
2018-Jun-23 18:00N 45°51' E 018°52'0 0.0
2018-Jun-23 17:30N 45°51' E 018°52'2 3.1
2018-Jun-23 17:01N 45°52' E 018°50'6 9.0
2018-Jun-23 16:18N 45°58' E 018°45'116 3.3
2018-Jun-22 05:03N 47°46' E 017°42'1 9.9
2018-Jun-22 05:00N 47°46' E 017°42'5 9.8
2018-Jun-22 04:29N 47°50' E 017°36'2 0.3
2018-Jun-21 20:01N 47°51' E 017°34'0 0.4
2018-Jun-21 19:59N 47°51' E 017°34'2 3.6
2018-Jun-21 19:25N 47°53' E 017°32'0 1.0
2018-Jun-21 19:01N 47°53' E 017°32'4 8.2
2018-Jun-21 18:31N 47°56' E 017°27'4 8.3
2018-Jun-21 18:01N 47°59' E 017°23'4 7.8
2018-Jun-21 17:31N 48°00' E 017°17'4 8.3
2018-Jun-21 17:01N 48°03' E 017°12'4 8.9
2018-Jun-21 16:31N 48°06' E 017°08'4 7.4
2018-Jun-21 16:00N 48°09' E 017°04'5 9.1
2018-Jun-21 15:29N 48°10' E 016°57'  
2018-Jun-19 07:26N 48°08' E 016°53'2 4.1
2018-Jun-19 07:00N 48°09' E 016°55'2 3.8
2018-Jun-19 06:29N 48°10' E 016°57'2 3.8
2018-Jun-19 06:00N 48°10' E 016°60'2 4.0
2018-Jun-19 05:30N 48°08' E 017°02'2 4.4
2018-Jun-19 05:00N 48°08' E 017°06'2 4.6
2018-Jun-19 04:30N 48°07' E 017°09'3 2.7
2018-Jun-19 03:25N 48°05' E 017°09'0 0.0
2018-Jun-19 02:20N 48°05' E 017°09'0 0.0
2018-Jun-18 23:38N 48°05' E 017°09'0 0.0
2018-Jun-18 23:20N 48°05' E 017°09'0 0.0
2018-Jun-18 22:56N 48°05' E 017°09'0 0.0
2018-Jun-18 22:29N 48°05' E 017°09'0 0.0
2018-Jun-18 21:56N 48°05' E 017°09'0 0.0
2018-Jun-18 21:29N 48°05' E 017°09'0 0.0
2018-Jun-18 20:56N 48°05' E 017°09'0 0.0
2018-Jun-18 19:56N 48°05' E 017°09'0 0.0
2018-Jun-18 19:25N 48°05' E 017°09'0 0.0
2018-Jun-18 18:55N 48°05' E 017°09'0 0.0
2018-Jun-18 18:19N 48°05' E 017°09'0 0.0
2018-Jun-18 17:44N 48°05' E 017°09'0 0.0
2018-Jun-18 17:29N 48°05' E 017°09'0 0.0
2018-Jun-18 16:58N 48°05' E 017°09'0 0.0
2018-Jun-18 16:23N 48°05' E 017°09'0 0.0
2018-Jun-18 16:00N 48°05' E 017°09'3 6.6
2018-Jun-18 15:30N 48°02' E 017°13'4 8.0
2018-Jun-18 15:00N 48°00' E 017°18'4 8.3
2018-Jun-18 14:30N 47°58' E 017°24'4 8.6
2018-Jun-18 14:00N 47°56' E 017°28'4 7.5
2018-Jun-18 13:30N 47°53' E 017°32'0 0.7
2018-Jun-18 13:00N 47°53' E 017°33'0 0.0
2018-Jun-18 12:30N 47°53' E 017°33'3 5.9
2018-Jun-18 12:00N 47°50' E 017°35'4 6.1
2018-Jun-18 11:18N 47°47' E 017°40'  
2018-Jun-16 05:34N 46°00' E 018°41'0 2.2
2018-Jun-16 05:30N 46°00' E 018°41'4 6.8
2018-Jun-16 04:55N 45°58' E 018°45'3 6.7
2018-Jun-16 04:24N 45°55' E 018°48'3 0.3
2018-Jun-15 18:20N 45°53' E 018°50'1 4.5
2018-Jun-15 18:00N 45°51' E 018°51'1 1.2
2018-Jun-15 17:30N 45°51' E 018°52'0 0.0
2018-Jun-15 17:00N 45°51' E 018°52'0 0.3
2018-Jun-15 16:30N 45°51' E 018°51'3 6.8
2018-Jun-15 16:00N 45°47' E 018°51'3 6.3
2018-Jun-15 15:31N 45°45' E 018°54'4 7.1
2018-Jun-15 15:01N 45°41' E 018°56'3 5.1
2018-Jun-15 14:30N 45°39' E 018°57'3 6.5
2018-Jun-15 14:01N 45°36' E 018°55'3 5.6
2018-Jun-15 13:31N 45°33' E 018°55'3 6.5
2018-Jun-15 13:01N 45°32' E 018°59'2 4.0
2018-Jun-15 12:31N 45°33' E 019°02'2 4.4
2018-Jun-15 12:01N 45°32' E 019°04'2 4.4
2018-Jun-15 11:31N 45°30' E 019°06'3 5.0
2018-Jun-15 11:00N 45°29' E 019°03'2 4.5
2018-Jun-15 10:31N 45°29' E 018°60'2 4.9
2018-Jun-15 10:01N 45°27' E 018°59'22 3.7
2018-Jun-15 03:59N 45°14' E 019°25'0 0.0
2018-Jun-15 03:25N 45°14' E 019°25'0 0.0
2018-Jun-15 02:52N 45°14' E 019°25'0 0.0
2018-Jun-15 02:29N 45°14' E 019°25'0 0.0
2018-Jun-15 01:55N 45°14' E 019°25'0 0.0
2018-Jun-15 01:29N 45°14' E 019°25'0 0.0
2018-Jun-15 00:55N 45°14' E 019°25'0 0.0
2018-Jun-15 00:21N 45°14' E 019°25'0 0.0
2018-Jun-14 23:59N 45°14' E 019°25'0 0.0
2018-Jun-14 23:27N 45°14' E 019°25'0 0.0
2018-Jun-14 22:54N 45°14' E 019°25'0 0.0
2018-Jun-14 22:22N 45°14' E 019°25'0 0.0
2018-Jun-14 22:00N 45°14' E 019°25'0 0.0
2018-Jun-14 21:30N 45°14' E 019°25'0 0.0
2018-Jun-14 21:01N 45°14' E 019°25'0 0.0
2018-Jun-14 20:30N 45°14' E 019°25'0 0.0
2018-Jun-14 20:01N 45°14' E 019°25'0 0.0
2018-Jun-14 19:30N 45°14' E 019°25'0 0.0
2018-Jun-14 19:01N 45°14' E 019°25'1 1.3
2018-Jun-14 18:31N 45°14' E 019°26'6 4.0
2018-Jun-14 17:03N 45°13' E 019°34'2 4.1
2018-Jun-14 16:29N 45°13' E 019°37'2 4.8
2018-Jun-14 16:00N 45°13' E 019°40'2 4.8
2018-Jun-14 15:31N 45°14' E 019°44'2 4.8
2018-Jun-14 15:01N 45°13' E 019°47'1 3.0
2018-Jun-14 14:31N 45°13' E 019°49'3 5.7
2018-Jun-14 14:00N 45°16' E 019°52'0 0.5
2018-Jun-14 13:31N 45°16' E 019°52'0 0.0
2018-Jun-14 13:01N 45°16' E 019°52'0 0.0
2018-Jun-14 12:31N 45°16' E 019°52'0 0.0
2018-Jun-14 12:01N 45°16' E 019°52'0 0.0
2018-Jun-14 11:31N 45°16' E 019°52'0 0.0
2018-Jun-14 11:01N 45°16' E 019°52'0 0.0
2018-Jun-14 10:30N 45°16' E 019°52'0 0.0
2018-Jun-14 10:01N 45°16' E 019°52'0 0.0
2018-Jun-14 09:31N 45°16' E 019°52'0 0.0
2018-Jun-14 09:01N 45°16' E 019°52'0 0.0
2018-Jun-14 08:31N 45°16' E 019°52'0 0.0
2018-Jun-14 08:01N 45°16' E 019°52'0 0.0
2018-Jun-14 07:31N 45°16' E 019°52'0 0.0
2018-Jun-14 07:01N 45°16' E 019°52'0 0.0
2018-Jun-14 06:31N 45°16' E 019°52'0 0.0
2018-Jun-14 06:01N 45°16' E 019°52'0 0.0
2018-Jun-14 05:30N 45°16' E 019°52'0 0.0
2018-Jun-14 05:00N 45°16' E 019°52'0 0.0
2018-Jun-14 04:31N 45°16' E 019°52'0 0.0
2018-Jun-14 04:01N 45°16' E 019°52'0 0.0
2018-Jun-14 03:31N 45°16' E 019°52'0 0.0
2018-Jun-14 03:01N 45°16' E 019°52'0 0.0
2018-Jun-14 02:31N 45°16' E 019°52'0 0.0
2018-Jun-14 02:00N 45°16' E 019°52'0 0.0
2018-Jun-14 01:31N 45°16' E 019°52'0 0.0
2018-Jun-14 01:00N 45°16' E 019°52'0 0.0
2018-Jun-14 00:31N 45°16' E 019°52'0 0.0
2018-Jun-14 00:00N 45°16' E 019°52'0 0.0
2018-Jun-13 23:30N 45°16' E 019°52'0 0.0
2018-Jun-13 23:00N 45°16' E 019°52'0 0.0
2018-Jun-13 22:31N 45°16' E 019°52'0 0.0
2018-Jun-13 22:00N 45°16' E 019°52'0 0.0
2018-Jun-13 21:25N 45°16' E 019°52'0 0.0
2018-Jun-13 21:01N 45°16' E 019°52'0 0.0
2018-Jun-13 20:30N 45°16' E 019°52'0 0.0
2018-Jun-13 20:01N 45°16' E 019°52'0 0.0
2018-Jun-13 19:30N 45°16' E 019°52'0 0.0
2018-Jun-13 19:01N 45°16' E 019°52'  
Track history (hours):
 
Tides and Currents Weather Stations Pressure Air Temp Water Temp Dewpoint Dewpoint Depression Visibility Wind Speed Wind Dir Waves Ship Positions

Karin IV

Last reported at 2018-Jun-23 18:43 UTC. Time now 2018-Jun-23 21:33 UTC.
Position N 45°50' E 018°51'.

Length 105 m; draft 0.3 m.

Type: Tanker. MMSI: 279202496.

Date/timePositionNaut miles runAvg speedWind from/ knotsBaromVisibWave heightAir tempDewpointWater temp
2018-Jun-23 18:43N 45°50' E 018°51'1 4.2
2018-Jun-23 18:30N 45°51' E 018°52'0 0.0
2018-Jun-23 18:00N 45°51' E 018°52'0 0.0
2018-Jun-23 17:30N 45°51' E 018°52'2 3.1
2018-Jun-23 17:01N 45°52' E 018°50'6 9.0
2018-Jun-23 16:18N 45°58' E 018°45'116 3.3
2018-Jun-22 05:03N 47°46' E 017°42'1 9.9
2018-Jun-22 05:00N 47°46' E 017°42'5 9.8
2018-Jun-22 04:29N 47°50' E 017°36'2 0.3
2018-Jun-21 20:01N 47°51' E 017°34'0 0.4
2018-Jun-21 19:59N 47°51' E 017°34'2 3.6
2018-Jun-21 19:25N 47°53' E 017°32'0 1.0
2018-Jun-21 19:01N 47°53' E 017°32'4 8.2
2018-Jun-21 18:31N 47°56' E 017°27'4 8.3
2018-Jun-21 18:01N 47°59' E 017°23'4 7.8
2018-Jun-21 17:31N 48°00' E 017°17'4 8.3
2018-Jun-21 17:01N 48°03' E 017°12'4 8.9
2018-Jun-21 16:31N 48°06' E 017°08'4 7.4
2018-Jun-21 16:00N 48°09' E 017°04'5 9.1
2018-Jun-21 15:29N 48°10' E 016°57'  
2018-Jun-19 07:26N 48°08' E 016°53'2 4.1
2018-Jun-19 07:00N 48°09' E 016°55'2 3.8
2018-Jun-19 06:29N 48°10' E 016°57'2 3.8
2018-Jun-19 06:00N 48°10' E 016°60'2 4.0
2018-Jun-19 05:30N 48°08' E 017°02'2 4.4
2018-Jun-19 05:00N 48°08' E 017°06'2 4.6
2018-Jun-19 04:30N 48°07' E 017°09'3 2.7
2018-Jun-19 03:25N 48°05' E 017°09'0 0.0
2018-Jun-19 02:20N 48°05' E 017°09'0 0.0
2018-Jun-18 23:38N 48°05' E 017°09'0 0.0
2018-Jun-18 23:20N 48°05' E 017°09'0 0.0
2018-Jun-18 22:56N 48°05' E 017°09'0 0.0
2018-Jun-18 22:29N 48°05' E 017°09'0 0.0
2018-Jun-18 21:56N 48°05' E 017°09'0 0.0
2018-Jun-18 21:29N 48°05' E 017°09'0 0.0
2018-Jun-18 20:56N 48°05' E 017°09'0 0.0
2018-Jun-18 19:56N 48°05' E 017°09'0 0.0
2018-Jun-18 19:25N 48°05' E 017°09'0 0.0
2018-Jun-18 18:55N 48°05' E 017°09'0 0.0
2018-Jun-18 18:19N 48°05' E 017°09'0 0.0
2018-Jun-18 17:44N 48°05' E 017°09'0 0.0
2018-Jun-18 17:29N 48°05' E 017°09'0 0.0
2018-Jun-18 16:58N 48°05' E 017°09'0 0.0
2018-Jun-18 16:23N 48°05' E 017°09'0 0.0
2018-Jun-18 16:00N 48°05' E 017°09'3 6.6
2018-Jun-18 15:30N 48°02' E 017°13'4 8.0
2018-Jun-18 15:00N 48°00' E 017°18'4 8.3
2018-Jun-18 14:30N 47°58' E 017°24'4 8.6
2018-Jun-18 14:00N 47°56' E 017°28'4 7.5
2018-Jun-18 13:30N 47°53' E 017°32'0 0.7
2018-Jun-18 13:00N 47°53' E 017°33'0 0.0
2018-Jun-18 12:30N 47°53' E 017°33'3 5.9
2018-Jun-18 12:00N 47°50' E 017°35'4 6.1
2018-Jun-18 11:18N 47°47' E 017°40'  
2018-Jun-16 05:34N 46°00' E 018°41'0 2.2
2018-Jun-16 05:30N 46°00' E 018°41'4 6.8
2018-Jun-16 04:55N 45°58' E 018°45'3 6.7
2018-Jun-16 04:24N 45°55' E 018°48'3 0.3
2018-Jun-15 18:20N 45°53' E 018°50'1 4.5
2018-Jun-15 18:00N 45°51' E 018°51'1 1.2
2018-Jun-15 17:30N 45°51' E 018°52'0 0.0
2018-Jun-15 17:00N 45°51' E 018°52'0 0.3
2018-Jun-15 16:30N 45°51' E 018°51'3 6.8
2018-Jun-15 16:00N 45°47' E 018°51'3 6.3
2018-Jun-15 15:31N 45°45' E 018°54'4 7.1
2018-Jun-15 15:01N 45°41' E 018°56'3 5.1
2018-Jun-15 14:30N 45°39' E 018°57'3 6.5
2018-Jun-15 14:01N 45°36' E 018°55'3 5.6
2018-Jun-15 13:31N 45°33' E 018°55'3 6.5
2018-Jun-15 13:01N 45°32' E 018°59'2 4.0
2018-Jun-15 12:31N 45°33' E 019°02'2 4.4
2018-Jun-15 12:01N 45°32' E 019°04'2 4.4
2018-Jun-15 11:31N 45°30' E 019°06'3 5.0
2018-Jun-15 11:00N 45°29' E 019°03'2 4.5
2018-Jun-15 10:31N 45°29' E 018°60'2 4.9
2018-Jun-15 10:01N 45°27' E 018°59'22 3.7
2018-Jun-15 03:59N 45°14' E 019°25'0 0.0
2018-Jun-15 03:25N 45°14' E 019°25'0 0.0
2018-Jun-15 02:52N 45°14' E 019°25'0 0.0
2018-Jun-15 02:29N 45°14' E 019°25'0 0.0
2018-Jun-15 01:55N 45°14' E 019°25'0 0.0
2018-Jun-15 01:29N 45°14' E 019°25'0 0.0
2018-Jun-15 00:55N 45°14' E 019°25'0 0.0
2018-Jun-15 00:21N 45°14' E 019°25'0 0.0
2018-Jun-14 23:59N 45°14' E 019°25'0 0.0
2018-Jun-14 23:27N 45°14' E 019°25'0 0.0
2018-Jun-14 22:54N 45°14' E 019°25'0 0.0
2018-Jun-14 22:22N 45°14' E 019°25'0 0.0
2018-Jun-14 22:00N 45°14' E 019°25'0 0.0
2018-Jun-14 21:30N 45°14' E 019°25'0 0.0
2018-Jun-14 21:01N 45°14' E 019°25'0 0.0
2018-Jun-14 20:30N 45°14' E 019°25'0 0.0
2018-Jun-14 20:01N 45°14' E 019°25'0 0.0
2018-Jun-14 19:30N 45°14' E 019°25'0 0.0
2018-Jun-14 19:01N 45°14' E 019°25'1 1.3
2018-Jun-14 18:31N 45°14' E 019°26'6 4.0
2018-Jun-14 17:03N 45°13' E 019°34'2 4.1
2018-Jun-14 16:29N 45°13' E 019°37'2 4.8
2018-Jun-14 16:00N 45°13' E 019°40'2 4.8
2018-Jun-14 15:31N 45°14' E 019°44'2 4.8
2018-Jun-14 15:01N 45°13' E 019°47'1 3.0
2018-Jun-14 14:31N 45°13' E 019°49'3 5.7
2018-Jun-14 14:00N 45°16' E 019°52'0 0.5
2018-Jun-14 13:31N 45°16' E 019°52'0 0.0
2018-Jun-14 13:01N 45°16' E 019°52'0 0.0
2018-Jun-14 12:31N 45°16' E 019°52'0 0.0
2018-Jun-14 12:01N 45°16' E 019°52'0 0.0
2018-Jun-14 11:31N 45°16' E 019°52'0 0.0
2018-Jun-14 11:01N 45°16' E 019°52'0 0.0
2018-Jun-14 10:30N 45°16' E 019°52'0 0.0
2018-Jun-14 10:01N 45°16' E 019°52'0 0.0
2018-Jun-14 09:31N 45°16' E 019°52'0 0.0
2018-Jun-14 09:01N 45°16' E 019°52'0 0.0
2018-Jun-14 08:31N 45°16' E 019°52'0 0.0
2018-Jun-14 08:01N 45°16' E 019°52'0 0.0
2018-Jun-14 07:31N 45°16' E 019°52'0 0.0
2018-Jun-14 07:01N 45°16' E 019°52'0 0.0
2018-Jun-14 06:31N 45°16' E 019°52'0 0.0
2018-Jun-14 06:01N 45°16' E 019°52'0 0.0
2018-Jun-14 05:30N 45°16' E 019°52'0 0.0
2018-Jun-14 05:00N 45°16' E 019°52'0 0.0
2018-Jun-14 04:31N 45°16' E 019°52'0 0.0
2018-Jun-14 04:01N 45°16' E 019°52'0 0.0
2018-Jun-14 03:31N 45°16' E 019°52'0 0.0
2018-Jun-14 03:01N 45°16' E 019°52'0 0.0
2018-Jun-14 02:31N 45°16' E 019°52'0 0.0
2018-Jun-14 02:00N 45°16' E 019°52'0 0.0
2018-Jun-14 01:31N 45°16' E 019°52'0 0.0
2018-Jun-14 01:00N 45°16' E 019°52'0 0.0
2018-Jun-14 00:31N 45°16' E 019°52'0 0.0
2018-Jun-14 00:00N 45°16' E 019°52'0 0.0
2018-Jun-13 23:30N 45°16' E 019°52'0 0.0
2018-Jun-13 23:00N 45°16' E 019°52'0 0.0
2018-Jun-13 22:31N 45°16' E 019°52'0 0.0
2018-Jun-13 22:00N 45°16' E 019°52'0 0.0
2018-Jun-13 21:25N 45°16' E 019°52'0 0.0
2018-Jun-13 21:01N 45°16' E 019°52'0 0.0
2018-Jun-13 20:30N 45°16' E 019°52'0 0.0
2018-Jun-13 20:01N 45°16' E 019°52'0 0.0
2018-Jun-13 19:30N 45°16' E 019°52'0 0.0
2018-Jun-13 19:01N 45°16' E 019°52'  

Dump ship's entire track history